Time;durP1;ratioP1;P1;durP2;ratioP2;P2;SDS_P1;SDS_P2;PMS_P1;PMS_P2;Temp;Humidity;BMP_temperature;BMP_pressure;BME280_temperature;BME280_humidity;BME280_pressure;Samples;Min_cycle;Max_cycle;Signal;HPM_P1;HPM_P2
2022/09/29 00:00:10;;;;;;;0.95;0.95;;;;;;;;;;5034655;28;20033;-69
2022/09/29 00:02:35;;;;;;;1.02;1.02;;;;;;;;;;5034215;28;20036;-69
2022/09/29 00:05:00;;;;;;;0.90;0.90;;;;;;;;;;5034586;28;20022;-70
2022/09/29 00:07:28;;;;;;;1.15;1.10;;;;;;;;;;5034217;28;20048;-70
2022/09/29 00:09:54;;;;;;;1.83;1.00;;;;;;;;;;5034465;28;20022;-69
2022/09/29 00:12:19;;;;;;;1.08;1.02;;;;;;;;;;5034406;28;20025;-69
2022/09/29 00:14:45;;;;;;;1.38;1.20;;;;;;;;;;5034079;28;20028;-69
2022/09/29 00:17:11;;;;;;;1.95;0.98;;;;;;;;;;5034144;28;20021;-69
2022/09/29 00:19:36;;;;;;;1.08;1.00;;;;;;;;;;5033939;28;20033;-70
2022/09/29 00:22:02;;;;;;;1.00;0.90;;;;;;;;;;5033913;28;20083;-70
2022/09/29 00:24:28;;;;;;;1.13;1.00;;;;;;;;;;5034064;28;20029;-69
2022/09/29 00:26:53;;;;;;;1.20;1.00;;;;;;;;;;5034217;28;20029;-69
2022/09/29 00:29:19;;;;;;;0.90;0.90;;;;;;;;;;5034057;28;20370;-70
2022/09/29 00:31:45;;;;;;;1.10;1.02;;;;;;;;;;5033702;28;20026;-70
2022/09/29 00:34:10;;;;;;;0.73;0.73;;;;;;;;;;5033946;28;20025;-70
2022/09/29 00:36:37;;;;;;;1.00;1.00;;;;;;;;;;5033928;28;20385;-69
2022/09/29 00:39:03;;;;;;;1.00;0.90;;;;;;;;;;5033424;28;20045;-70
2022/09/29 00:41:32;;;;;;;1.05;1.05;;;;;;;;;;5033437;28;20092;-70
2022/09/29 00:44:13;;;;;;;1.90;1.15;;;;;;;;;;5033551;28;20022;-69
2022/09/29 00:46:52;;;;;;;0.95;0.95;;;;;;;;;;5033675;28;20412;-70
2022/09/29 00:49:33;;;;;;;1.17;1.15;;;;;;;;;;5033410;28;20053;-69
2022/09/29 00:52:09;;;;;;;0.95;0.90;;;;;;;;;;5033639;28;20035;-70
2022/09/29 00:54:40;;;;;;;1.55;1.00;;;;;;;;;;5033315;28;20083;-70
2022/09/29 00:57:07;;;;;;;1.00;1.00;;;;;;;;;;5033240;28;20520;-69
2022/09/29 00:59:49;;;;;;;1.85;1.10;;;;;;;;;;5033474;28;20029;-70
2022/09/29 01:02:18;;;;;;;0.88;0.88;;;;;;;;;;5033118;28;20036;-70
2022/09/29 01:04:45;;;;;;;1.00;0.90;;;;;;;;;;5033202;28;20029;-70
2022/09/29 01:07:12;;;;;;;1.20;1.10;;;;;;;;;;5033322;28;20029;-70
2022/09/29 01:09:40;;;;;;;0.90;0.90;;;;;;;;;;5033340;28;20065;-70
2022/09/29 01:12:06;;;;;;;0.90;0.90;;;;;;;;;;5033306;28;20029;-70
2022/09/29 01:14:33;;;;;;;1.05;0.98;;;;;;;;;;5033221;28;20025;-70
2022/09/29 01:17:00;;;;;;;1.10;1.10;;;;;;;;;;5065039;28;20059;-70
2022/09/29 01:19:43;;;;;;;0.98;0.90;;;;;;;;;;5033034;28;20033;-70
2022/09/29 01:22:19;;;;;;;1.00;1.00;;;;;;;;;;5033191;28;20034;-70
2022/09/29 01:25:09;;;;;;;1.08;0.90;;;;;;;;;;5032754;28;20147;-68
2022/09/29 01:27:56;;;;;;;1.02;0.93;;;;;;;;;;5032749;28;20501;-70
2022/09/29 01:30:36;;;;;;;1.20;1.10;;;;;;;;;;5064804;28;20381;-70
2022/09/29 01:33:35;;;;;;;1.02;1.00;;;;;;;;;;5032770;28;20487;-70
2022/09/29 01:36:26;;;;;;;1.60;1.10;;;;;;;;;;5032553;28;20029;-70
2022/09/29 01:39:12;;;;;;;0.80;0.80;;;;;;;;;;5031959;28;20055;-69
2022/09/29 01:41:48;;;;;;;0.90;0.90;;;;;;;;;;5032932;28;20033;-70
2022/09/29 01:44:27;;;;;;;1.00;1.00;;;;;;;;;;5032545;28;20025;-69
2022/09/29 01:46:56;;;;;;;0.97;0.97;;;;;;;;;;5032837;28;20026;-68
2022/09/29 01:49:25;;;;;;;1.00;1.00;;;;;;;;;;5032380;28;20104;-69
2022/09/29 01:52:06;;;;;;;1.00;1.00;;;;;;;;;;5032341;28;20040;-69
2022/09/29 01:54:46;;;;;;;1.08;1.02;;;;;;;;;;5032405;28;20204;-68
2022/09/29 01:57:15;;;;;;;;;;;;;;;;;;5031606;28;20032;-68
2022/09/29 01:59:46;;;;;;;1.00;1.00;;;;;;;;;;5032254;28;20380;-69
2022/09/29 02:02:19;;;;;;;1.58;1.02;;;;;;;;;;5032129;28;20057;-69
2022/09/29 02:04:52;;;;;;;1.95;1.10;;;;;;;;;;5032244;28;20473;-68
2022/09/29 02:07:34;;;;;;;1.45;1.00;;;;;;;;;;5032566;28;20026;-70
2022/09/29 02:10:04;;;;;;;0.82;0.82;;;;;;;;;;5032331;28;20492;-70
2022/09/29 02:12:33;;;;;;;1.00;1.00;;;;;;;;;;5064668;28;20075;-70
2022/09/29 02:15:02;;;;;;;1.05;1.05;;;;;;;;;;5030924;28;20481;-70
2022/09/29 02:17:34;;;;;;;1.08;0.98;;;;;;;;;;5032196;28;20025;-69
2022/09/29 02:20:01;;;;;;;0.95;0.95;;;;;;;;;;5032382;28;20029;-70
2022/09/29 02:22:27;;;;;;;1.75;1.20;;;;;;;;;;5032477;28;20432;-69
2022/09/29 02:24:57;;;;;;;0.90;0.90;;;;;;;;;;5032490;28;20108;-68
2022/09/29 02:27:25;;;;;;;1.05;1.02;;;;;;;;;;5032338;28;20030;-70
2022/09/29 02:29:51;;;;;;;0.95;0.90;;;;;;;;;;5030872;28;20025;-68
2022/09/29 02:32:18;;;;;;;1.33;1.00;;;;;;;;;;5030787;28;20031;-68
2022/09/29 02:34:48;;;;;;;0.70;0.70;;;;;;;;;;5032365;28;20060;-70
2022/09/29 02:37:16;;;;;;;1.03;0.93;;;;;;;;;;5031905;28;20490;-67
2022/09/29 02:39:50;;;;;;;1.17;1.10;;;;;;;;;;5031862;28;20377;-70
2022/09/29 02:42:49;;;;;;;1.05;1.00;;;;;;;;;;5032015;28;20022;-70
2022/09/29 02:45:22;;;;;;;0.88;0.88;;;;;;;;;;5032277;28;20033;-69
2022/09/29 02:47:54;;;;;;;0.95;0.80;;;;;;;;;;5032102;28;20025;-69
2022/09/29 02:50:47;;;;;;;1.10;1.00;;;;;;;;;;5030689;28;20064;-68
2022/09/29 02:53:31;;;;;;;1.30;1.20;;;;;;;;;;5032177;28;20021;-69
2022/09/29 02:56:15;;;;;;;1.20;1.10;;;;;;;;;;5032046;28;20071;-67
2022/09/29 02:58:48;;;;;;;1.05;1.00;;;;;;;;;;5031717;28;20021;-70
2022/09/29 03:01:15;;;;;;;1.45;1.30;;;;;;;;;;5031715;28;20036;-69
2022/09/29 03:03:41;;;;;;;2.20;1.08;;;;;;;;;;5031702;28;20049;-69
2022/09/29 03:06:07;;;;;;;1.10;1.00;;;;;;;;;;5032056;28;20107;-70
2022/09/29 03:08:33;;;;;;;2.42;1.23;;;;;;;;;;5031697;28;20025;-69
2022/09/29 03:10:58;;;;;;;1.02;1.00;;;;;;;;;;5031931;28;20025;-68
2022/09/29 03:13:24;;;;;;;1.20;1.10;;;;;;;;;;5031983;28;20037;-68
2022/09/29 03:15:50;;;;;;;1.05;1.00;;;;;;;;;;5035199;28;20033;-69
2022/09/29 03:18:15;;;;;;;2.72;1.00;;;;;;;;;;5035042;28;20037;-69
2022/09/29 03:20:41;;;;;;;1.25;1.15;;;;;;;;;;5034984;28;20033;-69
2022/09/29 03:23:06;;;;;;;1.67;1.15;;;;;;;;;;5035342;28;20032;-69
2022/09/29 03:25:31;;;;;;;0.88;0.88;;;;;;;;;;5035342;28;20469;-70
2022/09/29 03:27:57;;;;;;;1.13;1.13;;;;;;;;;;5035210;28;20052;-69
2022/09/29 03:30:22;;;;;;;1.02;0.90;;;;;;;;;;5034908;28;20021;-70
2022/09/29 03:32:48;;;;;;;2.25;0.90;;;;;;;;;;5035186;28;20128;-69
2022/09/29 03:35:13;;;;;;;1.00;0.90;;;;;;;;;;5034875;28;20525;-69
2022/09/29 03:37:39;;;;;;;1.55;1.08;;;;;;;;;;5034650;28;20065;-69
2022/09/29 03:40:05;;;;;;;1.27;1.17;;;;;;;;;;5066631;28;20029;-69
2022/09/29 03:42:31;;;;;;;1.00;0.95;;;;;;;;;;5034723;28;20524;-69
2022/09/29 03:44:56;;;;;;;1.10;1.00;;;;;;;;;;5034696;28;20018;-70
2022/09/29 03:47:22;;;;;;;1.13;0.88;;;;;;;;;;5034833;28;20026;-69
2022/09/29 03:49:48;;;;;;;0.90;0.90;;;;;;;;;;5034871;28;20032;-70
2022/09/29 03:52:13;;;;;;;0.93;0.93;;;;;;;;;;5034864;28;20022;-69
2022/09/29 03:54:39;;;;;;;1.20;1.02;;;;;;;;;;5034686;28;20461;-69
2022/09/29 03:57:04;;;;;;;1.00;1.00;;;;;;;;;;5034466;28;20496;-70
2022/09/29 03:59:29;;;;;;;0.93;0.90;;;;;;;;;;5034304;28;20068;-69
2022/09/29 04:01:55;;;;;;;1.17;1.08;;;;;;;;;;5034559;28;20032;-69
2022/09/29 04:04:21;;;;;;;1.02;1.02;;;;;;;;;;5034317;28;20026;-69
2022/09/29 04:06:46;;;;;;;1.00;1.00;;;;;;;;;;5034173;28;20025;-68
2022/09/29 04:09:12;;;;;;;0.90;0.90;;;;;;;;;;5034789;28;20029;-69
2022/09/29 04:11:37;;;;;;;1.00;0.90;;;;;;;;;;5034256;28;20025;-69
2022/09/29 04:14:03;;;;;;;1.55;1.00;;;;;;;;;;5034054;28;20033;-69
2022/09/29 04:16:28;;;;;;;1.15;1.08;;;;;;;;;;5034071;28;20025;-68
2022/09/29 04:18:54;;;;;;;1.10;1.10;;;;;;;;;;5034015;28;20044;-70
2022/09/29 04:21:19;;;;;;;1.88;1.10;;;;;;;;;;5034186;28;20028;-69
2022/09/29 04:23:45;;;;;;;0.88;0.88;;;;;;;;;;5033999;28;20029;-69
2022/09/29 04:26:11;;;;;;;1.80;1.30;;;;;;;;;;5033469;28;20051;-69
2022/09/29 04:28:37;;;;;;;1.15;1.00;;;;;;;;;;5033793;28;20033;-67
2022/09/29 04:31:03;;;;;;;1.17;1.08;;;;;;;;;;5034062;28;20091;-69
2022/09/29 04:33:30;;;;;;;1.00;1.00;;;;;;;;;;5034155;28;20022;-69
2022/09/29 04:35:56;;;;;;;1.40;0.95;;;;;;;;;;5033974;28;20080;-67
2022/09/29 04:38:22;;;;;;;1.45;0.90;;;;;;;;;;5033441;28;20038;-70
2022/09/29 04:40:47;;;;;;;1.08;1.00;;;;;;;;;;5033564;28;20382;-70
2022/09/29 04:43:13;;;;;;;1.23;1.00;;;;;;;;;;5033502;28;20021;-69
2022/09/29 04:45:38;;;;;;;1.08;1.00;;;;;;;;;;5032225;28;20035;-69
2022/09/29 04:48:04;;;;;;;0.88;0.85;;;;;;;;;;5038473;28;20477;-69
2022/09/29 04:50:30;;;;;;;0.95;0.90;;;;;;;;;;5033492;28;20026;-68
2022/09/29 04:52:56;;;;;;;1.13;1.10;;;;;;;;;;5048919;28;20457;-69
2022/09/29 04:55:21;;;;;;;1.10;1.00;;;;;;;;;;5049799;28;20030;-69
2022/09/29 04:57:47;;;;;;;1.10;1.00;;;;;;;;;;5033459;28;20109;-69
2022/09/29 05:00:14;;;;;;;1.20;1.10;;;;;;;;;;5038106;28;20025;-70
2022/09/29 05:02:39;;;;;;;1.10;1.10;;;;;;;;;;5047203;28;20037;-68
2022/09/29 05:05:05;;;;;;;1.10;0.90;;;;;;;;;;5038652;28;20026;-70
2022/09/29 05:07:33;;;;;;;0.95;0.95;;;;;;;;;;5033427;28;20052;-67
2022/09/29 05:09:58;;;;;;;1.42;1.02;;;;;;;;;;5033165;28;20426;-70
2022/09/29 05:12:24;;;;;;;1.25;1.10;;;;;;;;;;5050905;28;20120;-69
2022/09/29 05:14:49;;;;;;;1.00;1.00;;;;;;;;;;5048909;28;20029;-70
2022/09/29 05:17:15;;;;;;;0.90;0.90;;;;;;;;;;5043711;28;20040;-68
2022/09/29 05:19:40;;;;;;;1.15;1.00;;;;;;;;;;5052701;28;20035;-69
2022/09/29 05:22:06;;;;;;;1.15;1.08;;;;;;;;;;5049629;28;20068;-68
2022/09/29 05:24:31;;;;;;;1.33;1.15;;;;;;;;;;5041377;28;20022;-69
2022/09/29 05:26:57;;;;;;;1.13;1.02;;;;;;;;;;5033004;28;20466;-65
2022/09/29 05:29:22;;;;;;;0.90;0.90;;;;;;;;;;5050962;28;20087;-70
2022/09/29 05:31:48;;;;;;;1.35;0.93;;;;;;;;;;5049916;28;20029;-66
2022/09/29 05:34:14;;;;;;;1.17;1.10;;;;;;;;;;5051593;28;20487;-70
2022/09/29 05:36:39;;;;;;;1.95;1.10;;;;;;;;;;5051116;28;20036;-69
2022/09/29 05:39:05;;;;;;;1.00;1.00;;;;;;;;;;5051586;28;20060;-69
2022/09/29 05:41:30;;;;;;;1.42;1.20;;;;;;;;;;5051981;28;20528;-68
2022/09/29 05:43:56;;;;;;;1.10;1.00;;;;;;;;;;5050771;28;20025;-65
2022/09/29 05:46:22;;;;;;;1.20;1.10;;;;;;;;;;5051988;28;20271;-68
2022/09/29 05:48:50;;;;;;;1.15;1.05;;;;;;;;;;5051347;28;20162;-69
2022/09/29 05:51:19;;;;;;;1.15;1.05;;;;;;;;;;5051171;28;20021;-70
2022/09/29 05:53:44;;;;;;;1.20;1.10;;;;;;;;;;5051034;28;20052;-67
2022/09/29 05:56:21;;;;;;;1.10;1.10;;;;;;;;;;5052488;28;20025;-67
2022/09/29 05:58:47;;;;;;;1.02;0.98;;;;;;;;;;5052120;28;20544;-68
2022/09/29 06:01:15;;;;;;;1.00;1.00;;;;;;;;;;5052651;28;20116;-70
2022/09/29 06:03:42;;;;;;;1.10;1.00;;;;;;;;;;5052559;28;20078;-68
2022/09/29 06:06:17;;;;;;;1.60;1.20;;;;;;;;;;5052208;28;20742;-69
2022/09/29 06:08:43;;;;;;;0.93;0.88;;;;;;;;;;5052458;28;20029;-69
2022/09/29 06:11:14;;;;;;;1.00;1.00;;;;;;;;;;5050743;28;20473;-67
2022/09/29 06:13:44;;;;;;;0.93;0.93;;;;;;;;;;5052551;28;20032;-69
2022/09/29 06:16:10;;;;;;;1.27;1.02;;;;;;;;;;5052093;28;20472;-69
2022/09/29 06:18:36;;;;;;;1.95;1.20;;;;;;;;;;5052313;28;20033;-68
2022/09/29 06:21:07;;;;;;;1.33;1.13;;;;;;;;;;5052127;28;20074;-70
2022/09/29 06:23:33;;;;;;;1.25;1.10;;;;;;;;;;5052246;28;20017;-69
2022/09/29 06:26:01;;;;;;;1.10;1.00;;;;;;;;;;5050939;28;20115;-69
2022/09/29 06:28:27;;;;;;;1.02;0.93;;;;;;;;;;5052037;28;20499;-68
2022/09/29 06:30:58;;;;;;;1.35;1.17;;;;;;;;;;5050716;28;20025;-70
2022/09/29 06:33:24;;;;;;;1.85;1.40;;;;;;;;;;5052059;28;20121;-69
2022/09/29 06:38:33;;;;;;;1.00;1.00;;;;;;;;;;5051667;28;20052;-67
2022/09/29 06:41:00;;;;;;;1.50;1.00;;;;;;;;;;5050691;28;20033;-66
2022/09/29 06:43:25;;;;;;;1.30;1.10;;;;;;;;;;5052313;28;20104;-69
2022/09/29 06:45:51;;;;;;;1.23;0.93;;;;;;;;;;5051907;28;20537;-70
2022/09/29 06:48:16;;;;;;;1.33;1.23;;;;;;;;;;5053374;28;20029;-65
2022/09/29 06:50:42;;;;;;;1.00;1.00;;;;;;;;;;5054773;28;20107;-68
2022/09/29 06:53:07;;;;;;;1.63;1.20;;;;;;;;;;5038034;28;20111;-67
2022/09/29 06:55:33;;;;;;;1.30;1.20;;;;;;;;;;5055821;28;20113;-67
2022/09/29 06:57:59;;;;;;;1.48;1.10;;;;;;;;;;5054311;28;20464;-68
2022/09/29 07:00:24;;;;;;;1.17;1.08;;;;;;;;;;5054047;28;20025;-66
2022/09/29 07:02:50;;;;;;;1.15;1.05;;;;;;;;;;5054243;28;20031;-71
2022/09/29 07:05:15;;;;;;;1.38;1.27;;;;;;;;;;5055531;28;20060;-69
2022/09/29 07:07:41;;;;;;;1.27;1.17;;;;;;;;;;5054955;28;20021;-71
2022/09/29 07:10:08;;;;;;;1.65;1.10;;;;;;;;;;5055700;28;20025;-70
2022/09/29 07:12:33;;;;;;;1.45;1.20;;;;;;;;;;5055591;28;20025;-68
2022/09/29 07:14:59;;;;;;;1.15;1.05;;;;;;;;;;5055205;28;20388;-67
2022/09/29 07:17:25;;;;;;;0.98;0.98;;;;;;;;;;5055531;28;20067;-69
2022/09/29 07:19:53;;;;;;;2.22;1.20;;;;;;;;;;5053692;28;20482;-67
2022/09/29 07:22:19;;;;;;;1.30;1.20;;;;;;;;;;5055398;28;20029;-69
2022/09/29 07:24:45;;;;;;;1.23;1.13;;;;;;;;;;5055288;28;20109;-68
2022/09/29 07:27:10;;;;;;;1.20;1.10;;;;;;;;;;5055177;28;20025;-70
2022/09/29 07:29:36;;;;;;;1.20;1.10;;;;;;;;;;5055047;28;20054;-69
2022/09/29 07:32:02;;;;;;;1.58;1.17;;;;;;;;;;5055262;28;20017;-70
2022/09/29 07:34:27;;;;;;;1.20;1.10;;;;;;;;;;5054698;28;20151;-69
2022/09/29 07:36:52;;;;;;;1.30;1.20;;;;;;;;;;5055109;28;20025;-70
2022/09/29 07:39:20;;;;;;;1.23;1.13;;;;;;;;;;5054520;28;20049;-70
2022/09/29 07:41:46;;;;;;;1.55;1.23;;;;;;;;;;5054827;28;20029;-71
2022/09/29 07:44:11;;;;;;;1.20;1.10;;;;;;;;;;5053774;28;20499;-71
2022/09/29 07:46:37;;;;;;;2.28;1.27;;;;;;;;;;5054860;28;20017;-70
2022/09/29 07:49:02;;;;;;;1.40;1.30;;;;;;;;;;5054915;28;20481;-69
2022/09/29 07:51:28;;;;;;;1.38;1.27;;;;;;;;;;5053339;28;20354;-70
2022/09/29 07:53:53;;;;;;;1.40;1.30;;;;;;;;;;5054660;28;20025;-70
2022/09/29 07:56:21;;;;;;;1.25;1.15;;;;;;;;;;5054772;28;20045;-69
2022/09/29 07:58:48;;;;;;;1.20;1.10;;;;;;;;;;5054476;28;20453;-65
2022/09/29 08:01:15;;;;;;;1.40;1.20;;;;;;;;;;5054028;28;20029;-70
2022/09/29 08:03:43;;;;;;;1.73;1.30;;;;;;;;;;5054261;28;20104;-67
2022/09/29 08:06:10;;;;;;;1.33;1.23;;;;;;;;;;5054519;28;20024;-67
2022/09/29 08:08:37;;;;;;;2.20;1.20;;;;;;;;;;5054217;28;20029;-68
2022/09/29 08:11:09;;;;;;;2.45;1.55;;;;;;;;;;5054256;28;20051;-70
2022/09/29 08:13:36;;;;;;;1.30;1.20;;;;;;;;;;5054301;28;20029;-70
2022/09/29 08:16:04;;;;;;;1.40;1.30;;;;;;;;;;5054378;28;20385;-65
2022/09/29 08:18:30;;;;;;;1.40;1.30;;;;;;;;;;5053738;28;20029;-69
2022/09/29 08:20:56;;;;;;;1.40;1.30;;;;;;;;;;5030975;28;20030;-70
2022/09/29 08:23:24;;;;;;;1.20;1.20;;;;;;;;;;5028288;28;20024;-66
2022/09/29 08:25:57;;;;;;;1.30;1.20;;;;;;;;;;5028224;28;20473;-66
2022/09/29 08:28:23;;;;;;;1.60;1.40;;;;;;;;;;5026801;28;20026;-69
2022/09/29 08:30:48;;;;;;;2.20;1.25;;;;;;;;;;5031011;28;20078;-70
2022/09/29 08:33:15;;;;;;;1.17;1.08;;;;;;;;;;5032422;28;20063;-66
2022/09/29 08:35:40;;;;;;;1.15;1.15;;;;;;;;;;5033866;28;20032;-69
2022/09/29 08:38:06;;;;;;;1.27;1.15;;;;;;;;;;5030250;28;20042;-65
2022/09/29 08:40:32;;;;;;;1.58;1.23;;;;;;;;;;5033548;28;20064;-67
2022/09/29 08:43:20;;;;;;;1.40;1.30;;;;;;;;;;5033745;28;20033;-70
2022/09/29 08:45:58;;;;;;;1.30;1.20;;;;;;;;;;5033842;28;20083;-70
2022/09/29 08:48:26;;;;;;;2.13;1.50;;;;;;;;;;5033738;28;20072;-70
2022/09/29 08:50:57;;;;;;;1.70;1.33;;;;;;;;;;5028654;28;20465;-67
2022/09/29 08:53:25;;;;;;;1.63;1.52;;;;;;;;;;5030883;28;20032;-71
2022/09/29 08:56:02;;;;;;;1.30;1.20;;;;;;;;;;5030814;28;20018;-70
2022/09/29 08:58:28;;;;;;;1.40;1.30;;;;;;;;;;5031162;28;20362;-71
2022/09/29 09:01:12;;;;;;;1.30;1.20;;;;;;;;;;5031153;28;20031;-69
2022/09/29 09:03:55;;;;;;;1.77;1.40;;;;;;;;;;5031548;28;20513;-66
2022/09/29 09:06:32;;;;;;;1.85;1.20;;;;;;;;;;5031876;28;20037;-67
2022/09/29 09:09:13;;;;;;;2.45;1.13;;;;;;;;;;5031450;28;20036;-69
2022/09/29 09:12:10;;;;;;;2.83;1.60;;;;;;;;;;5029975;28;20106;-69
2022/09/29 09:14:54;;;;;;;2.80;1.52;;;;;;;;;;5028686;28;20026;-69
2022/09/29 09:17:28;;;;;;;1.40;1.30;;;;;;;;;;5022592;28;20021;-68
2022/09/29 09:20:17;;;;;;;1.70;1.60;;;;;;;;;;5032923;28;20044;-68
2022/09/29 09:22:59;;;;;;;1.33;1.23;;;;;;;;;;5033173;28;20037;-69
2022/09/29 09:25:33;;;;;;;1.45;1.35;;;;;;;;;;5032947;28;20206;-68
2022/09/29 09:28:26;;;;;;;3.13;1.17;;;;;;;;;;5032613;28;20132;-67
2022/09/29 09:31:08;;;;;;;1.60;1.50;;;;;;;;;;5032999;28;20060;-68
2022/09/29 09:33:36;;;;;;;1.30;1.20;;;;;;;;;;5030423;28;20026;-70
2022/09/29 09:36:07;;;;;;;1.35;1.25;;;;;;;;;;5032962;28;20071;-70
2022/09/29 09:38:45;;;;;;;1.80;1.42;;;;;;;;;;5031132;28;20045;-66
2022/09/29 09:41:17;;;;;;;1.30;1.20;;;;;;;;;;5027787;28;20065;-69
2022/09/29 09:43:47;;;;;;;1.52;1.40;;;;;;;;;;5031033;28;20099;-68
2022/09/29 09:46:35;;;;;;;1.40;1.30;;;;;;;;;;5028700;28;20124;-69
2022/09/29 09:49:09;;;;;;;1.40;1.30;;;;;;;;;;5031237;28;20052;-70
2022/09/29 09:51:58;;;;;;;1.50;1.40;;;;;;;;;;5030992;28;20034;-66
2022/09/29 09:55:00;;;;;;;1.40;1.30;;;;;;;;;;5030688;28;20022;-68
2022/09/29 09:57:57;;;;;;;1.70;1.60;;;;;;;;;;5049160;28;20072;-68
2022/09/29 10:00:48;;;;;;;2.03;1.52;;;;;;;;;;5029995;28;20049;-66
2022/09/29 10:03:15;;;;;;;1.67;1.38;;;;;;;;;;5022669;28;20084;-69
2022/09/29 10:05:44;;;;;;;2.03;1.40;;;;;;;;;;5010961;28;20040;-67
2022/09/29 10:08:16;;;;;;;1.55;1.30;;;;;;;;;;5010837;28;20497;-67
2022/09/29 10:10:42;;;;;;;1.40;1.30;;;;;;;;;;5026982;28;20057;-67
2022/09/29 10:13:13;;;;;;;1.75;1.50;;;;;;;;;;5030490;28;20485;-69
2022/09/29 10:15:50;;;;;;;2.60;1.35;;;;;;;;;;5030449;28;20033;-68
2022/09/29 10:18:28;;;;;;;2.45;1.40;;;;;;;;;;5026675;28;20072;-68
2022/09/29 10:20:53;;;;;;;2.25;1.48;;;;;;;;;;5027500;28;20030;-67
2022/09/29 10:23:25;;;;;;;4.63;1.30;;;;;;;;;;5027683;28;20366;-66
2022/09/29 10:25:57;;;;;;;2.10;1.40;;;;;;;;;;5061256;28;20523;-67
2022/09/29 10:28:24;;;;;;;2.45;1.20;;;;;;;;;;5033988;28;20107;-67
2022/09/29 10:30:49;;;;;;;1.42;1.33;;;;;;;;;;5034395;28;20023;-67
2022/09/29 10:33:19;;;;;;;2.17;1.45;;;;;;;;;;5034743;28;20035;-67
2022/09/29 10:35:47;;;;;;;1.50;1.40;;;;;;;;;;5034368;28;20048;-68
2022/09/29 10:38:38;;;;;;;1.38;1.27;;;;;;;;;;5031751;28;20054;-67
2022/09/29 10:41:06;;;;;;;1.40;1.30;;;;;;;;;;5031950;28;20501;-67
2022/09/29 10:43:37;;;;;;;1.50;1.30;;;;;;;;;;5034461;28;20362;-67
2022/09/29 10:46:04;;;;;;;2.03;1.38;;;;;;;;;;5034458;28;20021;-67
2022/09/29 10:48:29;;;;;;;1.67;1.58;;;;;;;;;;5032719;28;20795;-65
2022/09/29 10:51:04;;;;;;;1.60;1.40;;;;;;;;;;5030628;28;20025;-68
2022/09/29 10:53:36;;;;;;;1.77;1.67;;;;;;;;;;5032283;28;20033;-67
2022/09/29 10:56:21;;;;;;;1.55;1.40;;;;;;;;;;5034346;28;20029;-65
2022/09/29 10:59:14;;;;;;;1.40;1.30;;;;;;;;;;5033971;28;20030;-65
2022/09/29 11:01:49;;;;;;;2.03;1.70;;;;;;;;;;5013838;28;20082;-65
2022/09/29 11:04:25;;;;;;;2.03;1.33;;;;;;;;;;5027554;28;20088;-65
2022/09/29 11:06:51;;;;;;;2.55;1.35;;;;;;;;;;5031365;28;20020;-65
2022/09/29 11:09:16;;;;;;;1.40;1.30;;;;;;;;;;5030150;28;20052;-65
2022/09/29 11:11:48;;;;;;;1.55;1.42;;;;;;;;;;5031670;28;21556;-65
2022/09/29 11:14:38;;;;;;;2.95;1.40;;;;;;;;;;5033431;28;20033;-66
2022/09/29 11:17:24;;;;;;;1.45;1.35;;;;;;;;;;5032292;28;20100;-65
2022/09/29 11:19:51;;;;;;;1.30;1.20;;;;;;;;;;5021550;28;20406;-65
2022/09/29 11:22:31;;;;;;;2.78;1.40;;;;;;;;;;5031154;28;20500;-65
2022/09/29 11:25:13;;;;;;;1.50;1.30;;;;;;;;;;5033401;28;20116;-66
2022/09/29 11:27:59;;;;;;;1.42;1.33;;;;;;;;;;5033457;28;20041;-65
2022/09/29 11:30:32;;;;;;;3.17;2.38;;;;;;;;;;5033550;28;20045;-66
2022/09/29 11:33:28;;;;;;;3.80;2.60;;;;;;;;;;5031246;28;20026;-67
2022/09/29 11:36:01;;;;;;;3.95;2.90;;;;;;;;;;5031596;28;20040;-67
2022/09/29 11:38:48;;;;;;;5.25;2.70;;;;;;;;;;5033098;28;20071;-66
2022/09/29 11:41:37;;;;;;;4.55;2.42;;;;;;;;;;5033166;28;20409;-67
2022/09/29 11:44:30;;;;;;;2.67;2.22;;;;;;;;;;5032802;28;20108;-67
2022/09/29 11:47:42;;;;;;;7.72;2.50;;;;;;;;;;5031644;28;20099;-66
2022/09/29 11:50:23;;;;;;;3.20;2.47;;;;;;;;;;5031018;28;20064;-66
2022/09/29 11:53:07;;;;;;;4.07;2.10;;;;;;;;;;5033004;28;20076;-67
2022/09/29 11:55:33;;;;;;;2.22;2.03;;;;;;;;;;5031848;28;20508;-67
2022/09/29 11:58:19;;;;;;;2.50;2.10;;;;;;;;;;5032780;28;20033;-67
2022/09/29 12:00:59;;;;;;;2.70;2.03;;;;;;;;;;5032993;28;20029;-67
2022/09/29 12:03:43;;;;;;;;;;;;;;;;;;5033324;28;20029;-66
2022/09/29 12:06:46;;;;;;;4.55;2.17;;;;;;;;;;5032688;28;19975;-67
2022/09/29 12:09:20;;;;;;;2.58;2.03;;;;;;;;;;5032896;28;20053;-67
2022/09/29 12:12:10;;;;;;;2.65;2.10;;;;;;;;;;5032838;28;20057;-67
2022/09/29 12:15:03;;;;;;;3.25;2.10;;;;;;;;;;5032339;28;20061;-66
2022/09/29 12:17:34;;;;;;;2.42;1.90;;;;;;;;;;5032375;28;20068;-66
2022/09/29 12:20:25;;;;;;;2.05;1.85;;;;;;;;;;5032324;28;20034;-66
2022/09/29 12:22:53;;;;;;;2.50;1.90;;;;;;;;;;5028015;28;20048;-66
2022/09/29 12:25:25;;;;;;;3.42;2.15;;;;;;;;;;5032475;28;20428;-66
2022/09/29 12:27:55;;;;;;;2.47;2.20;;;;;;;;;;5031418;28;20095;-66
2022/09/29 12:30:28;;;;;;;;;;;;;;;;;;5032870;28;20048;-67
2022/09/29 12:33:20;;;;;;;2.90;2.10;;;;;;;;;;5031312;28;19909;-66
2022/09/29 12:36:02;;;;;;;2.30;2.10;;;;;;;;;;5020654;28;20899;-66
2022/09/29 12:38:33;;;;;;;2.80;2.05;;;;;;;;;;5012264;28;20482;-67
2022/09/29 12:41:12;;;;;;;2.67;2.25;;;;;;;;;;5015306;28;20041;-67
2022/09/29 12:44:07;;;;;;;3.33;2.33;;;;;;;;;;5029455;28;20120;-67
2022/09/29 12:46:42;;;;;;;2.13;1.92;;;;;;;;;;5027435;28;20307;-66
2022/09/29 12:49:16;;;;;;;2.13;1.95;;;;;;;;;;5030535;28;20028;-69
2022/09/29 12:51:45;;;;;;;2.78;2.10;;;;;;;;;;5027648;28;20481;-67
2022/09/29 12:54:23;;;;;;;3.45;2.40;;;;;;;;;;5030736;28;20025;-66
2022/09/29 12:56:55;;;;;;;2.30;1.98;;;;;;;;;;5030179;28;20029;-67
2022/09/29 12:59:39;;;;;;;3.55;1.92;;;;;;;;;;5030600;28;20033;-67
2022/09/29 13:02:36;;;;;;;2.88;2.17;;;;;;;;;;5026857;28;20049;-67
2022/09/29 13:05:05;;;;;;;2.25;2.05;;;;;;;;;;5010152;28;20038;-67
2022/09/29 13:07:49;;;;;;;2.13;1.98;;;;;;;;;;5026038;28;20029;-67
2022/09/29 13:10:42;;;;;;;4.22;2.10;;;;;;;;;;5021426;28;20037;-67
2022/09/29 13:13:34;;;;;;;3.38;2.00;;;;;;;;;;5020917;28;20043;-68
2022/09/29 13:16:22;;;;;;;2.20;1.98;;;;;;;;;;5017166;28;20112;-67
2022/09/29 13:18:57;;;;;;;3.40;2.00;;;;;;;;;;5023002;28;20371;-67
2022/09/29 13:21:33;;;;;;;2.65;2.05;;;;;;;;;;5030551;28;20485;-67
2022/09/29 13:24:22;;;;;;;3.63;2.05;;;;;;;;;;5030384;28;20064;-67
2022/09/29 13:27:16;;;;;;;3.97;2.25;;;;;;;;;;5013547;28;20049;-68
2022/09/29 13:30:11;;;;;;;2.25;1.90;;;;;;;;;;5011286;28;20785;-68
2022/09/29 13:32:42;;;;;;;2.75;1.90;;;;;;;;;;5011253;28;20041;-67
2022/09/29 13:35:20;;;;;;;2.00;1.90;;;;;;;;;;5016579;28;20025;-67
2022/09/29 13:38:17;;;;;;;2.10;1.90;;;;;;;;;;5030076;28;20179;-67
2022/09/29 13:41:15;;;;;;;3.28;2.00;;;;;;;;;;5025478;28;20041;-67
2022/09/29 13:43:49;;;;;;;2.30;1.95;;;;;;;;;;5026418;28;20065;-67
2022/09/29 13:46:30;;;;;;;1.92;1.83;;;;;;;;;;5030919;28;20025;-67
2022/09/29 13:49:12;;;;;;;2.75;2.22;;;;;;;;;;5030851;28;20064;-67
2022/09/29 13:51:50;;;;;;;2.97;2.00;;;;;;;;;;5030784;28;20079;-67
2022/09/29 13:54:29;;;;;;;2.20;2.00;;;;;;;;;;5029339;28;20029;-67
2022/09/29 13:57:11;;;;;;;2.67;2.03;;;;;;;;;;5029172;28;20029;-67
2022/09/29 13:59:44;;;;;;;2.28;1.80;;;;;;;;;;5019620;28;20030;-66
2022/09/29 14:02:28;;;;;;;2.00;1.77;;;;;;;;;;5010993;28;20220;-67
2022/09/29 14:04:55;;;;;;;1.90;1.73;;;;;;;;;;5011159;28;20037;-67
2022/09/29 14:07:49;;;;;;;2.45;2.03;;;;;;;;;;5010969;28;20565;-67
2022/09/29 14:10:38;;;;;;;1.92;1.83;;;;;;;;;;5011396;28;20229;-68
2022/09/29 14:13:14;;;;;;;2.10;1.90;;;;;;;;;;5010935;28;20022;-68
2022/09/29 14:15:48;;;;;;;2.70;2.03;;;;;;;;;;5011091;28;20048;-67
2022/09/29 14:18:28;;;;;;;2.10;1.90;;;;;;;;;;5009676;28;20036;-67
2022/09/29 14:21:02;;;;;;;2.25;1.90;;;;;;;;;;5022011;28;20049;-66
2022/09/29 14:24:00;;;;;;;2.60;2.10;;;;;;;;;;5019904;28;20034;-67
2022/09/29 14:26:45;;;;;;;2.13;1.80;;;;;;;;;;4998656;28;20088;-67
2022/09/29 14:29:22;;;;;;;5.45;2.00;;;;;;;;;;5009301;28;20073;-67
2022/09/29 14:31:52;;;;;;;1.90;1.80;;;;;;;;;;5011224;28;20036;-67
2022/09/29 14:34:22;;;;;;;2.40;1.80;;;;;;;;;;5010690;28;20030;-67
2022/09/29 14:36:48;;;;;;;2.22;2.00;;;;;;;;;;5011431;28;20034;-67
2022/09/29 14:39:15;;;;;;;1.70;1.60;;;;;;;;;;5022276;28;20053;-66
2022/09/29 14:41:44;;;;;;;1.83;1.60;;;;;;;;;;4993016;28;20413;-66
2022/09/29 14:53:31;;;;;;;3.03;2.20;;;;;;;;;;5030537;28;20047;-66
2022/09/29 14:56:16;;;;;;;2.92;1.90;;;;;;;;;;5030555;28;20029;-66
2022/09/29 14:58:58;;;;;;;1.98;1.77;;;;;;;;;;5030218;28;20030;-66
2022/09/29 15:01:27;;;;;;;2.25;2.05;;;;;;;;;;5030257;28;20465;-66
2022/09/29 15:03:56;;;;;;;3.30;1.70;;;;;;;;;;5029981;28;20495;-66
2022/09/29 15:06:27;;;;;;;1.73;1.63;;;;;;;;;;5029781;28;20044;-66
2022/09/29 15:08:55;;;;;;;1.88;1.70;;;;;;;;;;5029061;28;20037;-66
2022/09/29 15:11:36;;;;;;;4.22;1.80;;;;;;;;;;5033779;28;20025;-65
2022/09/29 15:14:35;;;;;;;2.60;1.80;;;;;;;;;;5031310;28;20036;-65
2022/09/29 15:17:28;;;;;;;2.00;1.80;;;;;;;;;;5033507;28;20086;-64
2022/09/29 15:19:59;;;;;;;14.20;3.97;;;;;;;;;;5033348;28;20037;-64
2022/09/29 15:22:33;;;;;;;4.82;2.25;;;;;;;;;;5033265;28;20051;-66
2022/09/29 15:25:16;;;;;;;6.38;2.40;;;;;;;;;;5033627;28;20116;-66
2022/09/29 15:27:46;;;;;;;4.93;2.30;;;;;;;;;;5027580;28;20490;-65